This is the latest recevied weather packets stored in our database for station/object WA6OOO. If no packets are shown the sender has not sent any weather packets the latest 10 day(s).
| Time | Temp. | Humidity | Pressure | Rain* | Wind** | Luminosity | Snow |
|---|---|---|---|---|---|---|---|
| 1777663476 | 20° C | 68% | 1017.7 hPa | 0 mm | - | 779 W/m² | - |
| 1777663173 | 20° C | 67% | 1017.8 hPa | 0 mm | - | 776 W/m² | - |
| 1777662870 | 20° C | 67% | 1017.7 hPa | 0 mm | - | 748 W/m² | - |
| 1777662567 | 20° C | 67% | 1017.8 hPa | 0 mm | - | 773 W/m² | - |
| 1777662263 | 19.44° C | 69% | 1017.9 hPa | 0 mm | - | 770 W/m² | - |
| 1777661963 | 20.56° C | 67% | 1017.9 hPa | 0 mm | - | 757 W/m² | - |
| 1777661660 | 20.56° C | 67% | 1018.1 hPa | 0 mm | - | 784 W/m² | - |
| 1777661355 | 20° C | 67% | 1018 hPa | 0 mm | - | 772 W/m² | - |
| 1777661052 | 20.56° C | 66% | 1018.2 hPa | 0 mm | - | 763 W/m² | - |
| 1777660747 | 20° C | 68% | 1017.9 hPa | 0 mm | - | 754 W/m² | - |
| 1777660445 | 20.56° C | 67% | 1018.2 hPa | 0 mm | - | 704 W/m² | - |
| 1777660141 | 20° C | 67% | 1018.2 hPa | 0 mm | - | 725 W/m² | - |
| 1777659838 | 19.44° C | 70% | 1018 hPa | 0 mm | - | 736 W/m² | - |
| 1777659534 | 20° C | 69% | 1018.2 hPa | 0 mm | - | 734 W/m² | - |
| 1777659232 | 20° C | 68% | 1018.2 hPa | 0 mm | - | 716 W/m² | - |
| 1777658929 | 20° C | 68% | 1018 hPa | 0 mm | - | 722 W/m² | - |
| 1777658625 | 19.44° C | 68% | 1018.2 hPa | 0 mm | - | 708 W/m² | - |
| 1777658322 | 20° C | 68% | 1018.2 hPa | 0 mm | - | 699 W/m² | - |
| 1777658019 | 18.89° C | 71% | 1018.4 hPa | 0 mm | - | 685 W/m² | - |
| 1777657716 | 19.44° C | 70% | 1018.4 hPa | 0 mm | - | 692 W/m² | - |
| 1777657413 | 19.44° C | 70% | 1018.4 hPa | 0 mm | - | 686 W/m² | - |
| 1777657111 | 18.89° C | 72% | 1018.6 hPa | 0 mm | - | 691 W/m² | - |
| 1777656808 | 18.89° C | 72% | 1018.4 hPa | 0 mm | - | 748 W/m² | - |
| 1777656503 | 18.33° C | 74% | 1018.3 hPa | 0 mm | - | 765 W/m² | - |
| 1777656199 | 18.89° C | 71% | 1018.5 hPa | 0 mm | - | 581 W/m² | - |
* Rain latest hour (hover to see other rain measurements)
** Current wind speed in m/s (hover to see current wind gust speed)